Time;durP1;ratioP1;P1;durP2;ratioP2;P2;SDS_P1;SDS_P2;PMS_P1;PMS_P2;Temp;Humidity;BMP_temperature;BMP_pressure;BME280_temperature;BME280_humidity;BME280_pressure;Samples;Min_cycle;Max_cycle;Signal;HPM_P1;HPM_P2
2023/10/15 00:00:39;;;;;;;;;;;;;;;22.49;54.91;99702.59;5112466;28;19924;-68
2023/10/15 00:03:08;;;;;;;;;;;;;;;22.49;54.74;99709.91;5112473;28;19947;-68
2023/10/15 00:05:36;;;;;;;;;;;;;;;22.47;54.96;99717.38;5112809;28;19984;-68
2023/10/15 00:08:04;;;;;;;;;;;;;;;22.46;54.86;99730.13;5112586;28;20482;-68
2023/10/15 00:10:34;;;;;;;;;;;;;;;22.46;54.79;99726.56;5112647;28;19955;-68
2023/10/15 00:13:05;;;;;;;;;;;;;;;22.46;54.78;99732.00;5112741;28;19981;-68
2023/10/15 00:15:33;;;;;;;;;;;;;;;22.45;54.88;99735.75;5113155;28;19924;-68
2023/10/15 00:18:02;;;;;;;;;;;;;;;22.43;55.03;99738.66;5117082;28;19924;-68
2023/10/15 00:20:35;;;;;;;;;;;;;;;22.42;54.77;99739.66;5116629;27;19973;-68
2023/10/15 00:23:05;;;;;;;;;;;;;;;22.41;54.95;99743.41;5108089;28;20006;-68
2023/10/15 00:25:37;;;;;;;;;;;;;;;22.42;54.86;99741.53;5096184;28;20468;-68
2023/10/15 00:28:09;;;;;;;;;;;;;;;22.40;54.82;99749.88;5096260;28;19935;-68
2023/10/15 00:30:39;;;;;;;;;;;;;;;22.40;54.63;99754.47;5096396;28;20026;-68
2023/10/15 00:33:11;;;;;;;;;;;;;;;22.40;54.50;99770.78;5096345;28;19931;-68
2023/10/15 00:35:44;;;;;;;;;;;;;;;22.39;54.64;99786.25;5096149;28;20333;-68
2023/10/15 00:38:16;;;;;;;;;;;;;;;22.38;54.73;99789.09;5096109;28;19924;-69
2023/10/15 00:40:49;;;;;;;;;;;;;;;22.37;54.65;99793.69;5095940;28;19985;-68
2023/10/15 00:43:19;;;;;;;;;;;;;;;22.37;54.78;99787.41;5096184;28;20011;-68
2023/10/15 00:45:48;;;;;;;;;;;;;;;22.36;54.63;99796.59;5095966;28;19928;-68
2023/10/15 00:48:24;;;;;;;;;;;;;;;22.35;54.79;99800.34;5095895;28;19966;-68
2023/10/15 00:50:54;;;;;;;;;;;;;;;22.34;54.79;99791.34;5095741;28;20400;-68
2023/10/15 00:53:25;;;;;;;;;;;;;;;22.32;54.61;99778.97;5095653;28;19928;-68
2023/10/15 00:55:54;;;;;;;;;;;;;;;22.31;54.49;99772.69;5095900;28;19932;-68
2023/10/15 00:58:31;;;;;;;;;;;;;;;22.31;54.49;99782.72;5095634;28;20388;-69
2023/10/15 01:01:20;;;;;;;;;;;;;;;22.30;54.54;99776.44;5095990;28;19957;-68
2023/10/15 01:03:50;;;;;;;;;;;;;;;22.28;54.45;99790.19;5095707;28;20348;-68
2023/10/15 01:06:26;;;;;;;;;;;;;;;22.27;54.56;99802.06;5095601;28;19978;-69
2023/10/15 01:08:54;;;;;;;;;;;;;;;22.26;54.58;99802.25;5095444;28;20385;-68
2023/10/15 01:11:27;;;;;;;;;;;;;;;22.24;54.74;99791.56;5095359;28;20014;-69
2023/10/15 01:14:00;;;;;;;;;;;;;;;22.23;54.61;99798.03;5095406;28;19924;-69
2023/10/15 01:16:31;;;;;;;;;;;;;;;22.21;54.69;99797.38;5095416;28;19924;-69
2023/10/15 01:19:14;;;;;;;;;;;;;;;22.21;54.54;99805.53;5095288;28;19924;-68
2023/10/15 01:21:52;;;;;;;;;;;;;;;22.19;54.60;99799.41;5095122;28;20015;-69
2023/10/15 01:24:21;;;;;;;;;;;;;;;22.16;54.50;99802.47;5093889;28;19923;-69
2023/10/15 01:26:59;;;;;;;;;;;;;;;22.16;54.50;99796.19;5094950;28;19924;-69
2023/10/15 01:29:28;;;;;;;;;;;;;;;22.15;54.55;99779.06;5095253;28;19935;-69
2023/10/15 01:31:58;;;;;;;;;;;;;;;22.14;54.53;99779.25;5095093;28;19928;-68
2023/10/15 01:34:27;;;;;;;;;;;;;;;22.13;54.54;99780.28;5095078;28;19970;-68
2023/10/15 01:36:57;;;;;;;;;;;;;;;22.12;54.27;99786.72;5094732;28;19977;-68
2023/10/15 01:39:37;;;;;;;;;;;;;;;22.12;54.49;99771.28;5095105;28;19924;-69
2023/10/15 01:42:07;;;;;;;;;;;;;;;22.10;54.17;99764.31;5095081;28;19924;-69
2023/10/15 01:44:44;;;;;;;;;;;;;;;22.09;54.36;99771.63;5094840;28;19924;-69
2023/10/15 01:47:16;;;;;;;;;;;;;;;22.09;54.25;99796.06;5094664;28;19928;-69
2023/10/15 01:49:46;;;;;;;;;;;;;;;22.07;54.50;99795.41;5094993;28;19976;-69
2023/10/15 01:52:28;;;;;;;;;;;;;;;22.07;54.20;99800.81;5094833;28;19924;-69
2023/10/15 01:55:03;;;;;;;;;;;;;;;22.05;54.55;99805.56;5094591;28;19925;-69
2023/10/15 01:57:32;;;;;;;;;;;;;;;22.04;54.46;99814.75;5094644;28;19924;-69
2023/10/15 02:00:12;;;;;;;;;;;;;;;22.02;54.53;99815.94;5094578;28;20010;-69
2023/10/15 02:02:42;;;;;;;;;;;;;;;22.01;54.43;99820.53;5094615;28;19931;-68
2023/10/15 02:05:25;;;;;;;;;;;;;;;22.00;54.64;99816.09;5127343;27;19924;-69
2023/10/15 02:07:56;;;;;;;;;;;;;;;21.98;54.70;99835.28;5105087;28;19931;-69
2023/10/15 02:10:24;;;;;;;;;;;;;;;21.97;54.68;99824.59;5114608;28;20076;-69
2023/10/15 02:13:04;;;;;;;;;;;;;;;21.95;54.26;99830.22;5114968;28;19924;-69
2023/10/15 02:15:37;;;;;;;;;;;;;;;21.94;54.42;99831.25;5147707;27;19931;-69
2023/10/15 02:18:07;;;;;;;;;;;;;;;21.93;54.56;99837.69;5114682;28;19931;-69
2023/10/15 02:20:47;;;;;;;;;;;;;;;21.91;54.51;99828.03;5114351;28;19924;-69
2023/10/15 02:23:18;;;;;;;;;;;;;;;21.90;54.38;99819.03;5114643;28;19993;-70
2023/10/15 02:25:47;;;;;;;;;;;;;;;21.89;54.37;99808.34;5114576;28;19931;-69
2023/10/15 02:28:25;;;;;;;;;;;;;;;21.89;54.16;99794.75;5114588;28;20303;-70
2023/10/15 02:31:00;;;;;;;;;;;;;;;21.87;54.15;99791.38;5114587;28;19953;-67
2023/10/15 02:33:29;;;;;;;;;;;;;;;21.87;54.07;99802.25;5114255;28;19924;-69
2023/10/15 02:35:59;;;;;;;;;;;;;;;21.86;54.40;99804.13;5114310;28;19931;-69
2023/10/15 02:38:33;;;;;;;;;;;;;;;21.86;54.02;99797.84;5113308;28;20062;-69
2023/10/15 02:41:05;;;;;;;;;;;;;;;21.86;53.94;99808.69;5114129;28;19924;-69
2023/10/15 02:43:40;;;;;;;;;;;;;;;21.85;54.13;99809.72;5114061;28;19930;-70
2023/10/15 02:46:19;;;;;;;;;;;;;;;21.84;54.17;99808.88;5113996;28;19928;-69
2023/10/15 02:48:49;;;;;;;;;;;;;;;21.83;54.43;99817.19;5114128;28;19931;-69
2023/10/15 02:51:23;;;;;;;;;;;;;;;21.81;54.24;99824.66;5113891;28;20407;-69
2023/10/15 02:53:53;;;;;;;;;;;;;;;21.79;54.58;99832.13;5113958;28;19967;-68
2023/10/15 02:56:22;;;;;;;;;;;;;;;21.78;54.51;99838.59;5113806;28;19924;-69
2023/10/15 02:58:54;;;;;;;;;;;;;;;21.76;54.59;99843.34;5114029;28;19923;-68
2023/10/15 03:01:24;;;;;;;;;;;;;;;21.74;54.54;99848.09;5113856;28;19931;-68
2023/10/15 03:03:54;;;;;;;;;;;;;;;21.72;54.64;99840.16;5113764;28;19931;-69
2023/10/15 03:06:28;;;;;;;;;;;;;;;21.70;54.61;99839.44;5113685;28;19982;-69
2023/10/15 03:08:57;;;;;;;;;;;;;;;21.70;54.24;99844.88;5113560;28;20552;-69
2023/10/15 03:11:31;;;;;;;;;;;;;;;21.69;54.43;99845.91;5113977;28;19931;-69
2023/10/15 03:14:01;;;;;;;;;;;;;;;21.67;54.50;99862.38;5113741;28;20026;-69
2023/10/15 03:16:32;;;;;;;;;;;;;;;21.66;54.40;99859.81;5113452;28;19958;-69
2023/10/15 03:19:09;;;;;;;;;;;;;;;21.65;54.63;99852.72;5113475;28;19946;-69
2023/10/15 03:21:39;;;;;;;;;;;;;;;21.64;54.61;99840.16;5113177;28;19953;-69
2023/10/15 03:24:07;;;;;;;;;;;;;;;21.63;54.33;99838.47;5113179;28;20385;-68
2023/10/15 03:26:37;;;;;;;;;;;;;;;21.62;54.41;99837.63;5113197;28;19923;-69
2023/10/15 03:29:13;;;;;;;;;;;;;;;21.62;54.35;99828.63;5112531;28;21672;-69
2023/10/15 03:31:48;;;;;;;;;;;;;;;21.61;54.37;99826.91;5113085;28;19931;-68
2023/10/15 03:34:21;;;;;;;;;;;;;;;21.60;54.27;99823.34;5113105;28;19924;-68
2023/10/15 03:36:51;;;;;;;;;;;;;;;21.61;54.52;99816.06;5113054;28;20364;-69
2023/10/15 03:39:25;;;;;;;;;;;;;;;21.60;54.32;99817.09;5113230;28;19928;-69
2023/10/15 03:41:54;;;;;;;;;;;;;;;21.59;54.46;99816.25;5112970;28;19924;-68
2023/10/15 03:44:27;;;;;;;;;;;;;;;21.59;54.54;99821.66;5112881;28;19969;-69
2023/10/15 03:47:03;;;;;;;;;;;;;;;21.58;54.29;99833.53;5112985;28;20356;-69
2023/10/15 03:49:32;;;;;;;;;;;;;;;21.56;54.44;99838.31;5112937;28;19931;-69
2023/10/15 03:52:07;;;;;;;;;;;;;;;21.57;54.54;99831.00;5113173;28;19924;-69
2023/10/15 03:54:37;;;;;;;;;;;;;;;21.56;54.40;99838.31;5113158;28;19930;-69
2023/10/15 03:57:07;;;;;;;;;;;;;;;21.55;54.55;99842.03;5112829;28;20414;-70
2023/10/15 03:59:42;;;;;;;;;;;;;;;21.54;54.49;99832.22;5113195;28;20278;-69
2023/10/15 04:02:22;;;;;;;;;;;;;;;21.52;54.28;99820.69;5112942;28;19928;-69
2023/10/15 04:05:00;;;;;;;;;;;;;;;21.52;54.41;99808.97;5112748;28;19924;-69
2023/10/15 04:07:36;;;;;;;;;;;;;;;21.50;54.30;99811.00;5112634;28;19946;-69
2023/10/15 04:10:07;;;;;;;;;;;;;;;21.50;54.28;99811.00;5112914;28;19933;-69
2023/10/15 04:12:35;;;;;;;;;;;;;;;21.49;54.42;99815.59;5112793;28;19927;-69
2023/10/15 04:15:13;;;;;;;;;;;;;;;21.47;54.37;99806.78;5112844;28;19992;-69
2023/10/15 04:17:44;;;;;;;;;;;;;;;21.47;53.98;99800.50;5112489;28;20368;-68
2023/10/15 04:20:15;;;;;;;;;;;;;;;21.46;53.91;99796.09;5112380;28;19924;-68
2023/10/15 04:22:46;;;;;;;;;;;;;;;21.45;53.94;99797.13;5112661;28;19930;-68
2023/10/15 04:25:23;;;;;;;;;;;;;;;21.44;54.01;99796.28;5112595;28;19924;-69
2023/10/15 04:27:52;;;;;;;;;;;;;;;21.43;54.21;99798.16;5112655;28;19954;-69
2023/10/15 04:30:22;;;;;;;;;;;;;;;21.42;54.22;99792.88;5112436;28;19923;-68
2023/10/15 04:32:51;;;;;;;;;;;;;;;21.42;54.06;99806.44;5112597;28;19924;-69
2023/10/15 04:35:25;;;;;;;;;;;;;;;21.41;54.17;99812.88;5112576;28;20331;-69
2023/10/15 04:37:54;;;;;;;;;;;;;;;21.40;53.85;99824.75;5112417;28;19970;-69
2023/10/15 04:40:23;;;;;;;;;;;;;;;21.38;54.02;99841.22;5112335;28;19924;-68
2023/10/15 04:42:52;;;;;;;;;;;;;;;21.38;54.05;99848.50;5112264;28;19927;-68
2023/10/15 04:45:23;;;;;;;;;;;;;;;21.35;54.07;99848.84;5112495;28;19931;-68
2023/10/15 04:47:54;;;;;;;;;;;;;;;21.33;54.12;99838.19;5112511;28;19963;-69
2023/10/15 04:50:28;;;;;;;;;;;;;;;21.30;54.33;99833.09;5112432;28;19924;-69
2023/10/15 04:53:03;;;;;;;;;;;;;;;21.31;54.17;99833.94;5112354;28;19931;-69
2023/10/15 04:55:31;;;;;;;;;;;;;;;21.30;53.92;99845.81;5112197;28;19966;-68
2023/10/15 04:58:01;;;;;;;;;;;;;;;21.28;53.85;99850.56;5112739;28;19985;-69
2023/10/15 05:00:30;;;;;;;;;;;;;;;21.25;53.90;99853.59;5112339;28;20022;-69
2023/10/15 05:03:01;;;;;;;;;;;;;;;21.23;53.64;99869.16;5115197;27;19924;-68
2023/10/15 05:05:30;;;;;;;;;;;;;;;21.21;53.67;99863.06;5115884;28;19931;-69
2023/10/15 05:08:00;;;;;;;;;;;;;;;21.19;53.60;99874.09;5115895;27;19942;-68
2023/10/15 05:10:29;;;;;;;;;;;;;;;21.18;53.78;99885.09;5115809;28;19927;-68
2023/10/15 05:12:59;;;;;;;;;;;;;;;21.18;53.75;99904.09;5115815;27;20388;-69
2023/10/15 05:15:27;;;;;;;;;;;;;;;21.17;53.40;99929.53;5115864;28;19927;-68
2023/10/15 05:17:57;;;;;;;;;;;;;;;21.15;53.50;99927.81;5115802;28;19967;-68
2023/10/15 05:20:25;;;;;;;;;;;;;;;21.12;53.59;99917.28;5115579;28;19936;-68
2023/10/15 05:22:53;;;;;;;;;;;;;;;21.13;53.57;99915.44;5115551;28;20018;-69
2023/10/15 05:25:21;;;;;;;;;;;;;;;21.12;53.48;99908.31;5115682;28;19928;-69
2023/10/15 05:27:50;;;;;;;;;;;;;;;21.11;53.30;99904.75;5115851;28;19923;-68
2023/10/15 05:30:19;;;;;;;;;;;;;;;21.09;53.32;99898.66;5115574;28;20349;-68
2023/10/15 05:32:49;;;;;;;;;;;;;;;21.09;53.50;99885.09;5115477;28;19930;-69
2023/10/15 05:35:20;;;;;;;;;;;;;;;21.09;53.24;99878.84;5115256;28;19923;-69
2023/10/15 05:37:48;;;;;;;;;;;;;;;21.08;53.05;99894.25;5115508;28;19931;-69
2023/10/15 05:40:16;;;;;;;;;;;;;;;21.07;53.00;99903.41;5115120;28;20057;-69
2023/10/15 05:42:45;;;;;;;;;;;;;;;21.07;53.05;99902.56;5115318;28;19959;-69
2023/10/15 05:45:14;;;;;;;;;;;;;;;21.05;52.98;99899.19;5115048;28;19924;-69
2023/10/15 05:47:43;;;;;;;;;;;;;;;21.04;53.14;99917.31;5115027;28;20270;-69
2023/10/15 05:50:12;;;;;;;;;;;;;;;21.04;53.34;99924.59;5115067;28;20019;-69
2023/10/15 05:52:42;;;;;;;;;;;;;;;21.02;53.21;99927.44;5115191;28;19924;-69
2023/10/15 05:55:11;;;;;;;;;;;;;;;20.99;53.26;99922.38;5115083;28;19924;-69
2023/10/15 05:57:39;;;;;;;;;;;;;;;20.99;52.96;99938.66;5114993;28;20323;-69
2023/10/15 06:00:18;;;;;;;;;;;;;;;20.98;53.31;99946.94;5114996;28;20350;-69
2023/10/15 06:02:47;;;;;;;;;;;;;;;20.96;53.14;99941.69;5115141;28;19935;-69
2023/10/15 06:05:16;;;;;;;;;;;;;;;20.94;52.90;99943.72;5114800;28;19923;-69
2023/10/15 06:07:46;;;;;;;;;;;;;;;20.93;53.04;99955.56;5114843;28;19931;-69
2023/10/15 06:10:14;;;;;;;;;;;;;;;20.93;53.16;99981.81;5114683;28;19923;-69
2023/10/15 06:12:42;;;;;;;;;;;;;;;20.91;52.95;99979.28;5113957;28;20412;-69
2023/10/15 06:15:14;;;;;;;;;;;;;;;20.89;52.84;99972.34;5113976;28;20423;-68
2023/10/15 06:17:47;;;;;;;;;;;;;;;20.90;52.97;99972.16;5114823;28;19976;-69
2023/10/15 06:20:15;;;;;;;;;;;;;;;20.89;53.10;99984.03;5114604;28;19923;-69
2023/10/15 06:22:47;;;;;;;;;;;;;;;20.86;52.92;99977.09;5114601;28;19924;-69
2023/10/15 06:25:17;;;;;;;;;;;;;;;20.85;52.78;99993.53;5114447;28;20637;-69
2023/10/15 06:27:46;;;;;;;;;;;;;;;20.84;52.79;99989.09;5114318;28;19924;-69
2023/10/15 06:30:17;;;;;;;;;;;;;;;20.83;52.65;99987.38;5114994;28;19931;-66
2023/10/15 06:32:52;;;;;;;;;;;;;;;20.81;52.69;99992.97;5114531;28;19969;-68
2023/10/15 06:35:22;;;;;;;;;;;;;;;20.77;52.58;99988.06;5114221;28;19923;-69
2023/10/15 06:37:55;;;;;;;;;;;;;;;20.75;52.88;99990.06;5114355;28;19965;-67
2023/10/15 06:40:24;;;;;;;;;;;;;;;20.74;52.54;99980.25;5114455;28;19930;-67
2023/10/15 06:42:59;;;;;;;;;;;;;;;20.74;52.40;99966.69;5114431;28;19924;-68
2023/10/15 06:45:28;;;;;;;;;;;;;;;20.75;52.54;99984.66;5114065;28;19931;-68
2023/10/15 06:47:56;;;;;;;;;;;;;;;20.76;52.40;99975.53;5113981;28;20022;-67
2023/10/15 06:50:24;;;;;;;;;;;;;;;20.75;52.09;99962.97;5113788;28;19924;-67
2023/10/15 06:52:57;;;;;;;;;;;;;;;20.73;52.55;99965.00;5118821;27;19967;-69
2023/10/15 06:55:26;;;;;;;;;;;;;;;20.73;52.11;99948.72;5102070;27;19935;-69
2023/10/15 06:57:54;;;;;;;;;;;;;;;20.73;52.07;99965.00;5134253;27;20391;-69
2023/10/15 07:00:21;;;;;;;;;;;;;;;20.71;52.51;99953.47;5134285;27;19978;-69
2023/10/15 07:02:50;;;;;;;;;;;;;;;20.71;52.34;99937.22;5134231;27;19978;-69
2023/10/15 07:05:20;;;;;;;;;;;;;;;20.70;52.49;99943.66;5130860;27;19923;-69
2023/10/15 07:07:49;;;;;;;;;;;;;;;20.69;52.43;99963.66;5124494;27;19930;-69
2023/10/15 07:10:18;;;;;;;;;;;;;;;20.66;52.45;99959.41;5118189;27;19924;-68
2023/10/15 07:12:47;;;;;;;;;;;;;;;20.65;52.49;99949.56;5130865;27;20299;-69
2023/10/15 07:15:16;;;;;;;;;;;;;;;20.64;52.13;99937.03;5120433;27;19924;-67
2023/10/15 07:17:45;;;;;;;;;;;;;;;20.64;52.06;99928.88;5117121;27;19963;-68
2023/10/15 07:20:15;;;;;;;;;;;;;;;20.64;52.00;99922.63;5122365;27;19983;-67
2023/10/15 07:22:44;;;;;;;;;;;;;;;20.64;51.83;99939.72;5125880;27;20060;-69
2023/10/15 07:25:13;;;;;;;;;;;;;;;20.64;52.11;99955.13;5122443;27;20322;-68
2023/10/15 07:27:45;;;;;;;;;;;;;;;20.63;52.12;99975.13;5119342;27;19969;-68
2023/10/15 07:30:14;;;;;;;;;;;;;;;20.63;52.28;99999.50;5114395;27;19924;-68
2023/10/15 07:32:43;;;;;;;;;;;;;;;20.62;52.40;100022.22;5124693;27;20014;-68
2023/10/15 07:35:12;;;;;;;;;;;;;;;20.60;52.04;100026.94;5118432;27;20032;-71
2023/10/15 07:37:41;;;;;;;;;;;;;;;20.56;52.27;100030.00;5127198;27;19968;-69
2023/10/15 07:40:16;;;;;;;;;;;;;;;20.54;51.93;100036.56;5124361;27;19924;-69
2023/10/15 07:42:48;;;;;;;;;;;;;;;20.52;52.21;100038.59;5126349;27;19923;-69
2023/10/15 07:45:17;;;;;;;;;;;;;;;20.52;51.95;100046.72;5123659;27;20312;-69
2023/10/15 07:47:45;;;;;;;;;;;;;;;20.50;52.21;100046.03;5121553;27;19989;-64
2023/10/15 07:50:16;;;;;;;;;;;;;;;20.50;52.00;100051.44;5127555;27;19924;-68
2023/10/15 07:52:45;;;;;;;;;;;;;;;20.51;52.05;100053.16;5133336;27;19927;-68
2023/10/15 07:55:14;;;;;;;;;;;;;;;20.50;51.71;100046.88;5132888;27;20372;-67
2023/10/15 07:57:42;;;;;;;;;;;;;;;20.50;51.78;100046.03;5133118;27;19924;-69
2023/10/15 08:00:15;;;;;;;;;;;;;;;20.50;51.73;100038.75;5133461;27;19930;-67
2023/10/15 08:02:45;;;;;;;;;;;;;;;20.48;51.71;100021.81;5133397;27;19977;-68
2023/10/15 08:05:14;;;;;;;;;;;;;;;20.48;51.36;100000.13;5133162;27;19966;-69
2023/10/15 08:07:43;;;;;;;;;;;;;;;20.48;51.64;100018.25;5132806;27;20569;-67
2023/10/15 08:10:14;;;;;;;;;;;;;;;20.47;51.55;100025.53;5130505;27;20445;-70
2023/10/15 08:12:45;;;;;;;;;;;;;;;20.47;51.71;100014.69;5120246;27;20021;-67
2023/10/15 08:15:14;;;;;;;;;;;;;;;20.47;51.43;100017.41;5116880;28;20010;-67
2023/10/15 08:17:42;;;;;;;;;;;;;;;20.47;51.71;99995.75;5117742;28;20350;-68
2023/10/15 08:20:11;;;;;;;;;;;;;;;20.46;51.63;100002.16;5119079;28;19924;-68
2023/10/15 08:22:44;;;;;;;;;;;;;;;20.46;51.58;100018.41;5126075;28;19928;-68
2023/10/15 08:25:21;;;;;;;;;;;;;;;20.47;51.65;100024.69;5122636;28;19931;-69
2023/10/15 08:27:49;;;;;;;;;;;;;;;20.46;51.61;100014.84;5118018;28;19931;-69
2023/10/15 08:30:19;;;;;;;;;;;;;;;20.46;51.85;100018.41;5120759;28;20037;-68
2023/10/15 08:32:48;;;;;;;;;;;;;;;20.46;51.75;100012.13;5123241;28;20009;-69
2023/10/15 08:35:17;;;;;;;;;;;;;;;20.45;51.61;100005.88;5121149;28;19977;-69
2023/10/15 08:37:46;;;;;;;;;;;;;;;20.43;51.57;99994.34;5124346;27;20368;-69
2023/10/15 08:40:17;;;;;;;;;;;;;;;20.43;51.58;99994.34;5127363;27;19972;-67
2023/10/15 08:42:50;;;;;;;;;;;;;;;20.44;51.74;100006.88;5129908;27;19923;-68
2023/10/15 08:45:21;;;;;;;;;;;;;;;20.43;51.92;100005.19;5136847;27;19959;-68
2023/10/15 08:47:50;;;;;;;;;;;;;;;20.43;51.89;100012.47;5120351;27;19959;-68
2023/10/15 08:50:20;;;;;;;;;;;;;;;20.43;51.85;100010.59;5124589;27;19923;-67
2023/10/15 08:52:52;;;;;;;;;;;;;;;20.43;51.72;100017.88;5126970;27;19930;-68
2023/10/15 08:55:22;;;;;;;;;;;;;;;20.41;51.62;100020.72;5123174;27;20312;-68
2023/10/15 08:57:54;;;;;;;;;;;;;;;20.41;51.49;100018.00;5124978;27;19923;-67
2023/10/15 09:00:28;;;;;;;;;;;;;;;20.42;51.54;100011.56;5123400;27;19935;-68
2023/10/15 09:03:01;;;;;;;;;;;;;;;20.41;51.91;100022.59;5121722;27;19931;-68
2023/10/15 09:05:33;;;;;;;;;;;;;;;20.40;51.66;100019.03;5122339;27;19934;-68
2023/10/15 09:08:06;;;;;;;;;;;;;;;20.40;51.86;100013.59;5124767;27;20022;-67
2023/10/15 09:10:35;;;;;;;;;;;;;;;20.41;51.57;100014.44;5123794;27;19924;-69
2023/10/15 09:13:04;;;;;;;;;;;;;;;20.40;51.74;100008.19;5121991;27;20006;-69
2023/10/15 09:15:34;;;;;;;;;;;;;;;20.40;51.69;100005.47;5115651;28;19924;-69
2023/10/15 09:18:02;;;;;;;;;;;;;;;20.39;51.37;100011.91;5115960;28;19923;-69
2023/10/15 09:20:33;;;;;;;;;;;;;;;20.40;51.56;100012.75;5115653;28;19946;-69
2023/10/15 09:23:01;;;;;;;;;;;;;;;20.39;51.52;100002.94;5121973;27;19931;-69
2023/10/15 09:25:31;;;;;;;;;;;;;;;20.38;51.72;99999.38;5124909;27;19960;-68
2023/10/15 09:28:00;;;;;;;;;;;;;;;20.38;51.80;99983.13;5121005;27;19923;-69
2023/10/15 09:30:30;;;;;;;;;;;;;;;20.39;51.93;99986.69;5123530;27;19924;-68
2023/10/15 09:33:00;;;;;;;;;;;;;;;20.38;51.73;99993.97;5124963;27;19923;-68
2023/10/15 09:35:29;;;;;;;;;;;;;;;20.38;51.56;99999.38;5126494;27;19928;-68
2023/10/15 09:37:58;;;;;;;;;;;;;;;20.39;51.68;100005.66;5123410;27;19978;-69
2023/10/15 09:40:30;;;;;;;;;;;;;;;20.38;51.80;100021.06;5117415;27;19997;-69
2023/10/15 09:43:00;;;;;;;;;;;;;;;20.38;51.80;100015.63;5117363;27;19923;-69
2023/10/15 09:45:30;;;;;;;;;;;;;;;20.38;51.82;100015.63;5122850;27;19924;-69
2023/10/15 09:48:00;;;;;;;;;;;;;;;20.39;51.61;100005.66;5122217;27;20356;-69
2023/10/15 09:50:31;;;;;;;;;;;;;;;20.38;51.77;99999.38;5125334;27;19924;-69
2023/10/15 09:53:08;;;;;;;;;;;;;;;20.38;51.79;99999.38;5111971;27;19967;-69
2023/10/15 09:55:37;;;;;;;;;;;;;;;20.38;51.57;100010.22;5122949;27;20030;-69
2023/10/15 09:58:06;;;;;;;;;;;;;;;20.38;51.54;100014.78;5114687;28;20422;-70
2023/10/15 10:00:47;;;;;;;;;;;;;;;20.37;51.36;100022.06;5122534;27;19927;-69
2023/10/15 10:03:47;;;;;;;;;;;;;;;20.37;51.49;100027.47;5120881;27;19927;-69
2023/10/15 10:06:26;;;;;;;;;;;;;;;20.37;51.43;100024.78;5040648;28;19925;-69
2023/10/15 10:09:02;;;;;;;;;;;;;;;20.37;51.33;100030.19;5111469;27;19923;-69
2023/10/15 10:11:38;;;;;;;;;;;;;;;20.37;51.33;100023.94;5120779;27;19928;-68
2023/10/15 10:14:18;;;;;;;;;;;;;;;20.36;51.65;100019.50;5125038;27;20501;-68
2023/10/15 10:16:46;;;;;;;;;;;;;;;20.36;51.39;100016.78;5125470;27;19931;-68
2023/10/15 10:19:16;;;;;;;;;;;;;;;20.35;51.65;100010.50;5122853;27;19969;-68
2023/10/15 10:21:49;;;;;;;;;;;;;;;20.35;51.29;100025.91;5122654;27;19924;-70
2023/10/15 10:24:17;;;;;;;;;;;;;;;20.35;51.44;100025.91;5123900;27;19924;-70
2023/10/15 10:26:52;;;;;;;;;;;;;;;20.34;51.13;100041.31;5131980;27;19923;-69
2023/10/15 10:29:21;;;;;;;;;;;;;;;20.35;51.30;100032.19;5134655;27;19930;-69
2023/10/15 10:31:49;;;;;;;;;;;;;;;20.34;51.56;100027.78;5130580;27;20069;-68
2023/10/15 10:34:28;;;;;;;;;;;;;;;20.34;51.38;100018.81;5114939;27;19928;-69
2023/10/15 10:36:58;;;;;;;;;;;;;;;20.34;51.06;100030.50;5116127;27;19924;-69
2023/10/15 10:39:42;;;;;;;;;;;;;;;20.34;51.48;100024.22;5107071;28;19923;-70
2023/10/15 10:42:19;;;;;;;;;;;;;;;20.33;51.26;100017.97;5114217;28;20340;-69
2023/10/15 10:44:47;;;;;;;;;;;;;;;20.33;50.95;100017.97;5113741;27;19923;-72
2023/10/15 10:47:21;;;;;;;;;;;;;;;20.33;51.16;100011.69;5121811;27;19923;-69
2023/10/15 10:49:55;;;;;;;;;;;;;;;20.33;50.91;100023.38;5134617;27;19930;-67
2023/10/15 10:52:34;;;;;;;;;;;;;;;20.33;51.19;100023.38;5134425;27;19923;-67
2023/10/15 10:55:21;;;;;;;;;;;;;;;20.33;51.00;100027.94;5134564;27;20292;-68
2023/10/15 10:57:50;;;;;;;;;;;;;;;20.32;51.02;100018.97;5132415;27;20014;-68
2023/10/15 11:00:19;;;;;;;;;;;;;;;20.33;50.95;100027.94;5113118;28;19924;-67
2023/10/15 11:02:47;;;;;;;;;;;;;;;20.32;51.04;100027.09;5113300;28;19967;-68
2023/10/15 11:05:18;;;;;;;;;;;;;;;20.31;51.00;100033.53;5113035;28;19977;-68
2023/10/15 11:07:47;;;;;;;;;;;;;;;20.30;50.67;100037.25;5113377;28;19978;-68
2023/10/15 11:10:17;;;;;;;;;;;;;;;20.30;50.60;100034.53;5112405;28;19927;-69
2023/10/15 11:12:46;;;;;;;;;;;;;;;20.28;50.71;100037.41;5112297;28;19923;-69
2023/10/15 11:15:14;;;;;;;;;;;;;;;20.30;50.42;100042.66;5113631;28;19930;-69
2023/10/15 11:17:54;;;;;;;;;;;;;;;20.28;50.44;100040.13;5113526;28;19924;-69
2023/10/15 11:20:22;;;;;;;;;;;;;;;20.28;50.42;100036.56;5113257;28;19924;-69
2023/10/15 11:22:52;;;;;;;;;;;;;;;20.27;50.26;100034.88;5113742;28;19924;-67
2023/10/15 11:25:23;;;;;;;;;;;;;;;20.26;49.93;100036.69;5113421;28;19923;-69
2023/10/15 11:27:51;;;;;;;;;;;;;;;20.25;49.86;100037.72;5112704;28;19953;-69
2023/10/15 11:30:20;;;;;;;;;;;;;;;20.25;50.02;100028.75;5113269;28;19924;-68
2023/10/15 11:32:51;;;;;;;;;;;;;;;20.25;49.71;100037.72;5113085;28;19923;-68
2023/10/15 11:35:19;;;;;;;;;;;;;;;20.24;49.67;100038.72;5113192;28;20027;-68
2023/10/15 11:37:50;;;;;;;;;;;;;;;20.23;49.73;100036.19;5113313;28;19924;-68
2023/10/15 11:40:21;;;;;;;;;;;;;;;20.22;49.89;100042.59;5113106;28;19928;-68
2023/10/15 11:42:51;;;;;;;;;;;;;;;20.21;49.47;100049.03;5112993;28;19923;-68
2023/10/15 11:45:25;;;;;;;;;;;;;;;20.22;49.84;100042.59;5112833;28;19969;-67
2023/10/15 11:47:56;;;;;;;;;;;;;;;20.20;49.52;100039.22;5113201;28;19927;-69
2023/10/15 11:50:25;;;;;;;;;;;;;;;20.19;49.50;100038.38;5111830;28;20022;-68
2023/10/15 11:52:55;;;;;;;;;;;;;;;20.19;49.42;100029.41;5113014;28;19923;-69
2023/10/15 11:55:26;;;;;;;;;;;;;;;20.19;49.78;100032.09;5112105;28;19931;-67
2023/10/15 11:57:54;;;;;;;;;;;;;;;20.18;49.23;100023.13;5111865;28;19931;-70
2023/10/15 12:00:31;;;;;;;;;;;;;;;20.17;49.39;100024.16;5112638;28;20288;-64
2023/10/15 12:03:00;;;;;;;;;;;;;;;20.16;49.01;100013.44;5095948;28;20278;-72
2023/10/15 12:05:31;;;;;;;;;;;;;;;20.15;49.22;100017.16;5092076;28;19963;-65
2023/10/15 12:08:00;;;;;;;;;;;;;;;20.14;48.73;100029.00;5105867;28;20013;-65
2023/10/15 12:10:30;;;;;;;;;;;;;;;20.12;48.86;100028.31;5125391;27;19923;-71
2023/10/15 12:12:58;;;;;;;;;;;;;;;20.12;48.43;100022.91;5133345;27;19930;-69
2023/10/15 12:15:30;;;;;;;;;;;;;;;20.10;48.50;100028.50;5122363;27;19978;-71
2023/10/15 12:17:59;;;;;;;;;;;;;;;20.10;48.79;100033.06;5122535;28;20018;-66
2023/10/15 12:20:27;;;;;;;;;;;;;;;20.08;48.82;100040.50;5127039;28;19923;-63
2023/10/15 12:22:55;;;;;;;;;;;;;;;20.08;48.77;100040.50;5132850;28;19976;-67
2023/10/15 12:25:24;;;;;;;;;;;;;;;20.09;50.56;100034.06;5132971;28;19923;-66
2023/10/15 12:27:54;;;;;;;;;;;;;;;20.13;51.04;100032.72;5129884;28;20288;-62
2023/10/15 12:30:24;;;;;;;;;;;;;;;20.16;52.57;100037.81;5123835;28;19948;-65
2023/10/15 12:32:53;;;;;;;;;;;;;;;20.15;51.34;100053.22;5112378;28;19931;-63
2023/10/15 12:35:22;;;;;;;;;;;;;;;20.15;52.03;100069.47;5115498;28;19924;-64
2023/10/15 12:37:58;;;;;;;;;;;;;;;20.18;53.48;100065.63;5121064;27;19928;-63
2023/10/15 12:40:31;;;;;;;;;;;;;;;20.18;52.62;100055.63;5111881;28;19931;-65
2023/10/15 12:43:01;;;;;;;;;;;;;;;20.16;52.75;100054.91;5111700;28;19930;-65
2023/10/15 12:45:29;;;;;;;;;;;;;;;20.17;52.47;100045.81;5111915;28;19975;-65
2023/10/15 12:47:59;;;;;;;;;;;;;;;20.16;52.13;100043.22;5111850;28;19985;-65
2023/10/15 12:50:27;;;;;;;;;;;;;;;20.15;51.75;100050.50;5111911;28;19977;-66
2023/10/15 12:52:58;;;;;;;;;;;;;;;20.15;51.92;100049.66;5118656;28;19924;-66
2023/10/15 12:55:26;;;;;;;;;;;;;;;20.15;52.03;100055.94;5120470;27;20399;-66
2023/10/15 12:57:54;;;;;;;;;;;;;;;20.14;50.89;100042.53;5121786;28;20017;-66
2023/10/15 13:00:27;;;;;;;;;;;;;;;20.12;50.96;100041.88;5118595;28;19923;-66
2023/10/15 13:02:55;;;;;;;;;;;;;;;20.09;50.83;100056.56;5123190;28;19923;-66